sensor_id;sensor_type;location;lat;lon;timestamp;P1;durP1;ratioP1;P2;durP2;ratioP2
10399;SDS011;10031;51.180;17.168;2023-03-16T00:02:10;34.77;;;16.10;;
10399;SDS011;10031;51.180;17.168;2023-03-16T00:04:39;28.93;;;15.43;;
10399;SDS011;10031;51.180;17.168;2023-03-16T00:07:06;33.87;;;17.37;;
10399;SDS011;10031;51.180;17.168;2023-03-16T00:09:34;31.43;;;16.50;;
10399;SDS011;10031;51.180;17.168;2023-03-16T00:12:04;32.70;;;17.67;;
10399;SDS011;10031;51.180;17.168;2023-03-16T00:14:39;31.20;;;16.27;;
10399;SDS011;10031;51.180;17.168;2023-03-16T00:17:05;39.93;;;16.70;;
10399;SDS011;10031;51.180;17.168;2023-03-16T00:19:32;41.00;;;17.47;;
10399;SDS011;10031;51.180;17.168;2023-03-16T00:21:59;42.27;;;18.50;;
10399;SDS011;10031;51.180;17.168;2023-03-16T00:24:25;38.60;;;18.53;;
10399;SDS011;10031;51.180;17.168;2023-03-16T00:26:51;42.63;;;19.20;;
10399;SDS011;10031;51.180;17.168;2023-03-16T00:29:19;36.87;;;17.80;;
10399;SDS011;10031;51.180;17.168;2023-03-16T00:31:47;37.40;;;17.27;;
10399;SDS011;10031;51.180;17.168;2023-03-16T00:34:14;34.20;;;16.97;;
10399;SDS011;10031;51.180;17.168;2023-03-16T00:36:41;37.33;;;17.20;;
10399;SDS011;10031;51.180;17.168;2023-03-16T00:39:07;32.67;;;16.20;;
10399;SDS011;10031;51.180;17.168;2023-03-16T00:41:35;27.57;;;12.50;;
10399;SDS011;10031;51.180;17.168;2023-03-16T00:44:08;24.87;;;14.17;;
10399;SDS011;10031;51.180;17.168;2023-03-16T00:46:33;28.83;;;14.70;;
10399;SDS011;10031;51.180;17.168;2023-03-16T00:49:00;27.97;;;14.63;;
10399;SDS011;10031;51.180;17.168;2023-03-16T00:51:26;27.47;;;13.90;;
10399;SDS011;10031;51.180;17.168;2023-03-16T00:53:52;28.23;;;14.67;;
10399;SDS011;10031;51.180;17.168;2023-03-16T00:56:18;29.13;;;14.47;;
10399;SDS011;10031;51.180;17.168;2023-03-16T00:58:44;30.47;;;14.90;;
10399;SDS011;10031;51.180;17.168;2023-03-16T01:01:17;28.13;;;14.33;;
10399;SDS011;10031;51.180;17.168;2023-03-16T01:03:44;30.47;;;14.10;;
10399;SDS011;10031;51.180;17.168;2023-03-16T01:06:12;25.43;;;14.17;;
10399;SDS011;10031;51.180;17.168;2023-03-16T01:08:39;29.27;;;14.13;;
10399;SDS011;10031;51.180;17.168;2023-03-16T01:11:07;26.47;;;13.37;;
10399;SDS011;10031;51.180;17.168;2023-03-16T01:13:35;24.53;;;13.43;;
10399;SDS011;10031;51.180;17.168;2023-03-16T01:16:06;27.87;;;14.43;;
10399;SDS011;10031;51.180;17.168;2023-03-16T01:18:32;30.90;;;13.70;;
10399;SDS011;10031;51.180;17.168;2023-03-16T01:20:59;22.90;;;13.47;;
10399;SDS011;10031;51.180;17.168;2023-03-16T01:23:29;26.90;;;13.10;;
10399;SDS011;10031;51.180;17.168;2023-03-16T01:25:56;26.90;;;13.93;;
10399;SDS011;10031;51.180;17.168;2023-03-16T01:28:24;27.47;;;13.17;;
10399;SDS011;10031;51.180;17.168;2023-03-16T01:30:52;26.93;;;14.23;;
10399;SDS011;10031;51.180;17.168;2023-03-16T01:33:22;26.40;;;13.03;;
10399;SDS011;10031;51.180;17.168;2023-03-16T01:35:51;27.23;;;13.20;;
10399;SDS011;10031;51.180;17.168;2023-03-16T01:38:18;20.30;;;10.77;;
10399;SDS011;10031;51.180;17.168;2023-03-16T01:40:44;27.50;;;13.17;;
10399;SDS011;10031;51.180;17.168;2023-03-16T01:43:11;27.57;;;13.53;;
10399;SDS011;10031;51.180;17.168;2023-03-16T01:48:32;27.57;;;13.40;;
10399;SDS011;10031;51.180;17.168;2023-03-16T01:54:30;21.40;;;12.87;;
10399;SDS011;10031;51.180;17.168;2023-03-16T01:59:58;25.30;;;13.20;;
10399;SDS011;10031;51.180;17.168;2023-03-16T02:02:42;23.20;;;12.67;;
10399;SDS011;10031;51.180;17.168;2023-03-16T02:05:13;23.43;;;12.33;;
10399;SDS011;10031;51.180;17.168;2023-03-16T02:07:45;19.27;;;9.77;;
10399;SDS011;10031;51.180;17.168;2023-03-16T02:10:16;20.53;;;11.40;;
10399;SDS011;10031;51.180;17.168;2023-03-16T02:12:43;22.60;;;11.27;;
10399;SDS011;10031;51.180;17.168;2023-03-16T02:15:10;23.43;;;10.07;;
10399;SDS011;10031;51.180;17.168;2023-03-16T02:17:37;23.23;;;11.83;;
10399;SDS011;10031;51.180;17.168;2023-03-16T02:22:57;23.33;;;11.07;;
10399;SDS011;10031;51.180;17.168;2023-03-16T02:25:25;23.57;;;10.27;;
10399;SDS011;10031;51.180;17.168;2023-03-16T02:30:55;19.87;;;9.70;;
10399;SDS011;10031;51.180;17.168;2023-03-16T02:33:22;22.73;;;10.43;;
10399;SDS011;10031;51.180;17.168;2023-03-16T02:35:49;15.67;;;9.77;;
10399;SDS011;10031;51.180;17.168;2023-03-16T02:38:15;17.33;;;9.57;;
10399;SDS011;10031;51.180;17.168;2023-03-16T02:40:41;23.33;;;10.13;;
10399;SDS011;10031;51.180;17.168;2023-03-16T02:43:14;19.73;;;9.77;;
10399;SDS011;10031;51.180;17.168;2023-03-16T02:45:48;22.47;;;10.27;;
10399;SDS011;10031;51.180;17.168;2023-03-16T02:48:24;18.23;;;8.80;;
10399;SDS011;10031;51.180;17.168;2023-03-16T02:51:00;17.27;;;9.77;;
10399;SDS011;10031;51.180;17.168;2023-03-16T02:53:25;18.60;;;9.77;;
10399;SDS011;10031;51.180;17.168;2023-03-16T02:55:51;17.10;;;9.57;;
10399;SDS011;10031;51.180;17.168;2023-03-16T02:58:22;17.53;;;9.10;;
10399;SDS011;10031;51.180;17.168;2023-03-16T03:00:47;21.73;;;9.63;;
10399;SDS011;10031;51.180;17.168;2023-03-16T03:03:13;18.33;;;9.93;;
10399;SDS011;10031;51.180;17.168;2023-03-16T03:05:39;15.13;;;9.03;;
10399;SDS011;10031;51.180;17.168;2023-03-16T03:08:05;14.90;;;8.47;;
10399;SDS011;10031;51.180;17.168;2023-03-16T03:10:31;14.47;;;8.80;;
10399;SDS011;10031;51.180;17.168;2023-03-16T03:12:58;17.97;;;9.20;;
10399;SDS011;10031;51.180;17.168;2023-03-16T03:15:24;19.50;;;9.90;;
10399;SDS011;10031;51.180;17.168;2023-03-16T03:17:50;19.60;;;9.60;;
10399;SDS011;10031;51.180;17.168;2023-03-16T03:20:19;18.20;;;9.20;;
10399;SDS011;10031;51.180;17.168;2023-03-16T03:22:48;18.80;;;9.47;;
10399;SDS011;10031;51.180;17.168;2023-03-16T03:25:16;15.80;;;8.97;;
10399;SDS011;10031;51.180;17.168;2023-03-16T03:27:44;18.33;;;9.27;;
10399;SDS011;10031;51.180;17.168;2023-03-16T03:30:12;16.87;;;8.63;;
10399;SDS011;10031;51.180;17.168;2023-03-16T03:32:39;20.37;;;9.73;;
10399;SDS011;10031;51.180;17.168;2023-03-16T03:35:06;20.10;;;9.37;;
10399;SDS011;10031;51.180;17.168;2023-03-16T03:37:35;19.73;;;9.77;;
10399;SDS011;10031;51.180;17.168;2023-03-16T03:40:00;18.83;;;8.63;;
10399;SDS011;10031;51.180;17.168;2023-03-16T03:42:36;14.60;;;8.33;;
10399;SDS011;10031;51.180;17.168;2023-03-16T03:45:02;17.80;;;9.07;;
10399;SDS011;10031;51.180;17.168;2023-03-16T03:47:28;17.37;;;8.87;;
10399;SDS011;10031;51.180;17.168;2023-03-16T03:49:56;20.87;;;9.97;;
10399;SDS011;10031;51.180;17.168;2023-03-16T03:52:22;20.03;;;10.30;;
10399;SDS011;10031;51.180;17.168;2023-03-16T03:54:48;21.93;;;9.87;;
10399;SDS011;10031;51.180;17.168;2023-03-16T03:57:15;21.37;;;9.60;;
10399;SDS011;10031;51.180;17.168;2023-03-16T03:59:41;17.37;;;10.10;;
10399;SDS011;10031;51.180;17.168;2023-03-16T04:02:08;16.17;;;9.13;;
10399;SDS011;10031;51.180;17.168;2023-03-16T04:04:34;17.90;;;10.00;;
10399;SDS011;10031;51.180;17.168;2023-03-16T04:07:01;16.77;;;9.47;;
10399;SDS011;10031;51.180;17.168;2023-03-16T04:09:27;19.70;;;10.23;;
10399;SDS011;10031;51.180;17.168;2023-03-16T04:11:53;21.43;;;10.37;;
10399;SDS011;10031;51.180;17.168;2023-03-16T04:14:21;20.93;;;10.63;;
10399;SDS011;10031;51.180;17.168;2023-03-16T04:16:47;23.53;;;11.00;;
10399;SDS011;10031;51.180;17.168;2023-03-16T04:19:13;17.57;;;9.60;;
10399;SDS011;10031;51.180;17.168;2023-03-16T04:21:39;24.57;;;11.20;;
10399;SDS011;10031;51.180;17.168;2023-03-16T04:24:06;20.77;;;10.50;;
10399;SDS011;10031;51.180;17.168;2023-03-16T04:26:32;21.60;;;10.70;;
10399;SDS011;10031;51.180;17.168;2023-03-16T04:28:58;19.07;;;10.20;;
10399;SDS011;10031;51.180;17.168;2023-03-16T04:31:24;18.70;;;9.70;;
10399;SDS011;10031;51.180;17.168;2023-03-16T04:33:50;24.73;;;10.10;;
10399;SDS011;10031;51.180;17.168;2023-03-16T04:36:18;27.97;;;11.33;;
10399;SDS011;10031;51.180;17.168;2023-03-16T04:38:48;21.63;;;10.87;;
10399;SDS011;10031;51.180;17.168;2023-03-16T04:41:15;21.10;;;10.43;;
10399;SDS011;10031;51.180;17.168;2023-03-16T04:43:42;25.13;;;10.83;;
10399;SDS011;10031;51.180;17.168;2023-03-16T04:46:08;18.47;;;10.27;;
10399;SDS011;10031;51.180;17.168;2023-03-16T04:48:35;16.53;;;9.40;;
10399;SDS011;10031;51.180;17.168;2023-03-16T04:51:02;19.07;;;9.73;;
10399;SDS011;10031;51.180;17.168;2023-03-16T04:53:29;21.20;;;10.57;;
10399;SDS011;10031;51.180;17.168;2023-03-16T04:55:56;21.90;;;10.47;;
10399;SDS011;10031;51.180;17.168;2023-03-16T04:58:22;23.10;;;10.77;;
10399;SDS011;10031;51.180;17.168;2023-03-16T05:00:50;16.30;;;9.80;;
10399;SDS011;10031;51.180;17.168;2023-03-16T05:03:16;20.00;;;10.30;;
10399;SDS011;10031;51.180;17.168;2023-03-16T05:05:43;16.63;;;9.43;;
10399;SDS011;10031;51.180;17.168;2023-03-16T05:08:11;21.53;;;9.40;;
10399;SDS011;10031;51.180;17.168;2023-03-16T05:10:37;21.43;;;10.17;;
10399;SDS011;10031;51.180;17.168;2023-03-16T05:13:04;16.73;;;9.80;;
10399;SDS011;10031;51.180;17.168;2023-03-16T05:15:30;19.00;;;9.43;;
10399;SDS011;10031;51.180;17.168;2023-03-16T05:17:57;19.30;;;9.50;;
10399;SDS011;10031;51.180;17.168;2023-03-16T05:20:23;21.43;;;9.17;;
10399;SDS011;10031;51.180;17.168;2023-03-16T05:22:50;16.87;;;8.87;;
10399;SDS011;10031;51.180;17.168;2023-03-16T05:25:16;16.47;;;9.43;;
10399;SDS011;10031;51.180;17.168;2023-03-16T05:27:47;17.73;;;9.07;;
10399;SDS011;10031;51.180;17.168;2023-03-16T05:30:14;22.77;;;9.70;;
10399;SDS011;10031;51.180;17.168;2023-03-16T05:32:42;17.27;;;10.10;;
10399;SDS011;10031;51.180;17.168;2023-03-16T05:35:08;19.73;;;9.50;;
10399;SDS011;10031;51.180;17.168;2023-03-16T05:37:37;17.47;;;9.00;;
10399;SDS011;10031;51.180;17.168;2023-03-16T05:40:08;19.30;;;10.07;;
10399;SDS011;10031;51.180;17.168;2023-03-16T05:42:42;18.87;;;9.27;;
10399;SDS011;10031;51.180;17.168;2023-03-16T05:45:09;17.67;;;8.60;;
10399;SDS011;10031;51.180;17.168;2023-03-16T05:47:36;18.77;;;9.13;;
10399;SDS011;10031;51.180;17.168;2023-03-16T05:50:03;18.00;;;9.80;;
10399;SDS011;10031;51.180;17.168;2023-03-16T05:52:29;19.60;;;9.70;;
10399;SDS011;10031;51.180;17.168;2023-03-16T05:54:56;18.30;;;9.67;;
10399;SDS011;10031;51.180;17.168;2023-03-16T05:57:21;17.13;;;8.80;;
10399;SDS011;10031;51.180;17.168;2023-03-16T05:59:47;20.70;;;9.10;;
10399;SDS011;10031;51.180;17.168;2023-03-16T06:02:14;22.00;;;11.57;;
10399;SDS011;10031;51.180;17.168;2023-03-16T06:04:40;33.67;;;15.80;;
10399;SDS011;10031;51.180;17.168;2023-03-16T06:07:06;32.77;;;16.20;;
10399;SDS011;10031;51.180;17.168;2023-03-16T06:09:32;31.83;;;16.93;;
10399;SDS011;10031;51.180;17.168;2023-03-16T06:11:58;25.37;;;13.47;;
10399;SDS011;10031;51.180;17.168;2023-03-16T06:14:24;22.67;;;11.77;;
10399;SDS011;10031;51.180;17.168;2023-03-16T06:16:50;28.97;;;11.47;;
10399;SDS011;10031;51.180;17.168;2023-03-16T06:19:16;23.57;;;11.67;;
10399;SDS011;10031;51.180;17.168;2023-03-16T06:21:42;24.77;;;11.17;;
10399;SDS011;10031;51.180;17.168;2023-03-16T06:24:11;18.00;;;9.47;;
10399;SDS011;10031;51.180;17.168;2023-03-16T06:26:37;16.60;;;9.60;;
10399;SDS011;10031;51.180;17.168;2023-03-16T06:29:03;19.53;;;9.20;;
10399;SDS011;10031;51.180;17.168;2023-03-16T06:31:30;15.23;;;7.13;;
10399;SDS011;10031;51.180;17.168;2023-03-16T06:33:58;12.67;;;8.30;;
10399;SDS011;10031;51.180;17.168;2023-03-16T06:36:24;11.83;;;7.10;;
10399;SDS011;10031;51.180;17.168;2023-03-16T06:38:50;10.70;;;5.97;;
10399;SDS011;10031;51.180;17.168;2023-03-16T06:41:16;12.13;;;6.07;;
10399;SDS011;10031;51.180;17.168;2023-03-16T06:43:42;13.17;;;5.30;;
10399;SDS011;10031;51.180;17.168;2023-03-16T06:46:08;10.50;;;5.47;;
10399;SDS011;10031;51.180;17.168;2023-03-16T06:48:35;12.40;;;5.77;;
10399;SDS011;10031;51.180;17.168;2023-03-16T06:51:01;6.90;;;4.30;;
10399;SDS011;10031;51.180;17.168;2023-03-16T06:53:27;11.73;;;5.83;;
10399;SDS011;10031;51.180;17.168;2023-03-16T06:55:52;7.63;;;5.07;;
10399;SDS011;10031;51.180;17.168;2023-03-16T06:58:18;12.87;;;5.97;;
10399;SDS011;10031;51.180;17.168;2023-03-16T07:00:45;10.73;;;5.30;;
10399;SDS011;10031;51.180;17.168;2023-03-16T07:03:11;8.73;;;5.03;;
10399;SDS011;10031;51.180;17.168;2023-03-16T07:05:37;11.53;;;5.47;;
10399;SDS011;10031;51.180;17.168;2023-03-16T07:08:03;10.03;;;5.07;;
10399;SDS011;10031;51.180;17.168;2023-03-16T07:10:30;10.33;;;4.87;;
10399;SDS011;10031;51.180;17.168;2023-03-16T07:12:56;4.43;;;2.93;;
10399;SDS011;10031;51.180;17.168;2023-03-16T07:15:23;6.93;;;3.73;;
10399;SDS011;10031;51.180;17.168;2023-03-16T07:17:50;8.80;;;4.13;;
10399;SDS011;10031;51.180;17.168;2023-03-16T07:20:17;9.33;;;3.93;;
10399;SDS011;10031;51.180;17.168;2023-03-16T07:22:43;12.80;;;5.03;;
10399;SDS011;10031;51.180;17.168;2023-03-16T07:25:09;8.27;;;4.40;;
10399;SDS011;10031;51.180;17.168;2023-03-16T07:27:36;6.30;;;3.93;;
10399;SDS011;10031;51.180;17.168;2023-03-16T07:30:03;6.90;;;3.93;;
10399;SDS011;10031;51.180;17.168;2023-03-16T07:32:30;7.77;;;3.67;;
10399;SDS011;10031;51.180;17.168;2023-03-16T07:34:56;5.37;;;2.07;;
10399;SDS011;10031;51.180;17.168;2023-03-16T07:37:23;5.13;;;3.53;;
10399;SDS011;10031;51.180;17.168;2023-03-16T07:39:49;8.07;;;3.13;;
10399;SDS011;10031;51.180;17.168;2023-03-16T07:42:16;8.83;;;4.67;;
10399;SDS011;10031;51.180;17.168;2023-03-16T07:44:43;7.47;;;3.33;;
10399;SDS011;10031;51.180;17.168;2023-03-16T07:47:12;8.00;;;3.30;;
10399;SDS011;10031;51.180;17.168;2023-03-16T07:49:38;7.93;;;3.90;;
10399;SDS011;10031;51.180;17.168;2023-03-16T07:52:05;5.87;;;3.70;;
10399;SDS011;10031;51.180;17.168;2023-03-16T07:54:32;6.10;;;3.57;;
10399;SDS011;10031;51.180;17.168;2023-03-16T07:56:58;8.87;;;3.57;;
10399;SDS011;10031;51.180;17.168;2023-03-16T07:59:24;5.67;;;2.47;;
10399;SDS011;10031;51.180;17.168;2023-03-16T08:01:49;4.10;;;2.67;;
10399;SDS011;10031;51.180;17.168;2023-03-16T08:04:15;9.27;;;3.80;;
10399;SDS011;10031;51.180;17.168;2023-03-16T08:06:41;7.70;;;4.03;;
10399;SDS011;10031;51.180;17.168;2023-03-16T08:09:08;10.83;;;3.60;;
10399;SDS011;10031;51.180;17.168;2023-03-16T08:11:34;7.43;;;3.17;;
10399;SDS011;10031;51.180;17.168;2023-03-16T08:14:00;6.27;;;3.07;;
10399;SDS011;10031;51.180;17.168;2023-03-16T08:16:26;9.93;;;3.77;;
10399;SDS011;10031;51.180;17.168;2023-03-16T08:18:55;7.57;;;3.33;;
10399;SDS011;10031;51.180;17.168;2023-03-16T08:21:21;9.90;;;3.83;;
10399;SDS011;10031;51.180;17.168;2023-03-16T08:23:47;9.23;;;3.40;;
10399;SDS011;10031;51.180;17.168;2023-03-16T08:26:20;5.73;;;3.67;;
10399;SDS011;10031;51.180;17.168;2023-03-16T08:28:47;6.67;;;3.40;;
10399;SDS011;10031;51.180;17.168;2023-03-16T08:31:16;7.67;;;3.70;;
10399;SDS011;10031;51.180;17.168;2023-03-16T08:33:43;9.20;;;3.43;;
10399;SDS011;10031;51.180;17.168;2023-03-16T08:36:11;9.93;;;3.53;;
10399;SDS011;10031;51.180;17.168;2023-03-16T08:38:39;6.17;;;3.30;;
10399;SDS011;10031;51.180;17.168;2023-03-16T08:41:08;5.70;;;3.30;;
10399;SDS011;10031;51.180;17.168;2023-03-16T08:43:36;9.40;;;3.40;;
10399;SDS011;10031;51.180;17.168;2023-03-16T08:46:03;8.07;;;3.47;;
10399;SDS011;10031;51.180;17.168;2023-03-16T08:48:30;8.87;;;3.70;;
10399;SDS011;10031;51.180;17.168;2023-03-16T08:51:03;7.23;;;2.80;;
10399;SDS011;10031;51.180;17.168;2023-03-16T08:53:30;6.83;;;2.93;;
10399;SDS011;10031;51.180;17.168;2023-03-16T08:58:33;10.83;;;3.13;;
10399;SDS011;10031;51.180;17.168;2023-03-16T09:01:00;9.83;;;2.97;;
10399;SDS011;10031;51.180;17.168;2023-03-16T09:03:29;8.03;;;2.87;;
10399;SDS011;10031;51.180;17.168;2023-03-16T09:06:06;7.97;;;2.67;;
10399;SDS011;10031;51.180;17.168;2023-03-16T09:08:34;9.10;;;2.90;;
10399;SDS011;10031;51.180;17.168;2023-03-16T09:11:09;6.80;;;2.73;;
10399;SDS011;10031;51.180;17.168;2023-03-16T09:13:37;6.30;;;2.37;;
10399;SDS011;10031;51.180;17.168;2023-03-16T09:16:07;8.27;;;2.60;;
10399;SDS011;10031;51.180;17.168;2023-03-16T09:18:34;5.60;;;2.57;;
10399;SDS011;10031;51.180;17.168;2023-03-16T09:21:01;7.37;;;2.70;;
10399;SDS011;10031;51.180;17.168;2023-03-16T09:23:29;8.53;;;2.60;;
10399;SDS011;10031;51.180;17.168;2023-03-16T09:25:58;5.20;;;1.97;;
10399;SDS011;10031;51.180;17.168;2023-03-16T09:28:26;3.87;;;1.73;;
10399;SDS011;10031;51.180;17.168;2023-03-16T09:30:53;5.83;;;2.10;;
10399;SDS011;10031;51.180;17.168;2023-03-16T09:33:21;2.67;;;1.30;;
10399;SDS011;10031;51.180;17.168;2023-03-16T09:35:48;6.30;;;2.03;;
10399;SDS011;10031;51.180;17.168;2023-03-16T09:38:16;6.73;;;1.70;;
10399;SDS011;10031;51.180;17.168;2023-03-16T09:40:43;8.53;;;1.83;;
10399;SDS011;10031;51.180;17.168;2023-03-16T09:46:23;3.87;;;1.87;;
10399;SDS011;10031;51.180;17.168;2023-03-16T09:48:50;7.20;;;2.20;;
10399;SDS011;10031;51.180;17.168;2023-03-16T09:51:22;4.97;;;2.03;;
10399;SDS011;10031;51.180;17.168;2023-03-16T09:54:12;6.57;;;2.10;;
10399;SDS011;10031;51.180;17.168;2023-03-16T09:56:53;5.80;;;2.20;;
10399;SDS011;10031;51.180;17.168;2023-03-16T09:59:21;8.63;;;1.87;;
10399;SDS011;10031;51.180;17.168;2023-03-16T10:02:01;6.40;;;2.00;;
10399;SDS011;10031;51.180;17.168;2023-03-16T10:04:56;5.50;;;2.13;;
10399;SDS011;10031;51.180;17.168;2023-03-16T10:10:28;4.47;;;2.30;;
10399;SDS011;10031;51.180;17.168;2023-03-16T10:16:07;4.33;;;2.27;;
10399;SDS011;10031;51.180;17.168;2023-03-16T10:18:42;5.50;;;2.20;;
10399;SDS011;10031;51.180;17.168;2023-03-16T10:21:15;3.30;;;2.00;;
10399;SDS011;10031;51.180;17.168;2023-03-16T10:23:46;4.67;;;2.00;;
10399;SDS011;10031;51.180;17.168;2023-03-16T10:26:20;6.20;;;2.20;;
10399;SDS011;10031;51.180;17.168;2023-03-16T10:28:50;4.03;;;1.70;;
10399;SDS011;10031;51.180;17.168;2023-03-16T10:31:19;4.80;;;2.17;;
10399;SDS011;10031;51.180;17.168;2023-03-16T10:33:47;9.07;;;2.53;;
10399;SDS011;10031;51.180;17.168;2023-03-16T10:36:22;4.10;;;1.93;;
10399;SDS011;10031;51.180;17.168;2023-03-16T10:38:52;5.07;;;2.53;;
10399;SDS011;10031;51.180;17.168;2023-03-16T10:41:34;6.37;;;2.20;;
10399;SDS011;10031;51.180;17.168;2023-03-16T10:44:03;3.57;;;2.20;;
10399;SDS011;10031;51.180;17.168;2023-03-16T10:46:47;4.43;;;2.57;;
10399;SDS011;10031;51.180;17.168;2023-03-16T10:51:52;7.27;;;2.37;;
10399;SDS011;10031;51.180;17.168;2023-03-16T10:54:29;4.73;;;1.90;;
10399;SDS011;10031;51.180;17.168;2023-03-16T10:57:00;7.37;;;2.50;;
10399;SDS011;10031;51.180;17.168;2023-03-16T10:59:39;5.87;;;2.00;;
10399;SDS011;10031;51.180;17.168;2023-03-16T11:02:16;7.37;;;2.23;;
10399;SDS011;10031;51.180;17.168;2023-03-16T11:04:45;5.57;;;2.10;;
10399;SDS011;10031;51.180;17.168;2023-03-16T11:07:16;5.00;;;2.27;;
10399;SDS011;10031;51.180;17.168;2023-03-16T11:09:45;2.73;;;1.53;;
10399;SDS011;10031;51.180;17.168;2023-03-16T11:12:33;6.73;;;2.50;;
10399;SDS011;10031;51.180;17.168;2023-03-16T11:15:09;5.73;;;2.47;;
10399;SDS011;10031;51.180;17.168;2023-03-16T11:17:43;5.17;;;2.00;;
10399;SDS011;10031;51.180;17.168;2023-03-16T11:20:16;6.40;;;2.17;;
10399;SDS011;10031;51.180;17.168;2023-03-16T11:22:53;5.40;;;2.13;;
10399;SDS011;10031;51.180;17.168;2023-03-16T11:25:26;6.50;;;2.17;;
10399;SDS011;10031;51.180;17.168;2023-03-16T11:28:39;3.90;;;1.70;;
10399;SDS011;10031;51.180;17.168;2023-03-16T11:31:18;3.70;;;2.00;;
10399;SDS011;10031;51.180;17.168;2023-03-16T11:34:10;9.40;;;2.53;;
10399;SDS011;10031;51.180;17.168;2023-03-16T11:36:53;4.53;;;2.60;;
10399;SDS011;10031;51.180;17.168;2023-03-16T11:42:08;5.27;;;2.00;;
10399;SDS011;10031;51.180;17.168;2023-03-16T12:13:01;7.20;;;2.07;;
10399;SDS011;10031;51.180;17.168;2023-03-16T12:15:57;5.53;;;2.10;;
10399;SDS011;10031;51.180;17.168;2023-03-16T12:21:20;4.07;;;2.10;;
10399;SDS011;10031;51.180;17.168;2023-03-16T12:23:55;4.57;;;1.83;;
10399;SDS011;10031;51.180;17.168;2023-03-16T12:26:25;5.70;;;2.13;;
10399;SDS011;10031;51.180;17.168;2023-03-16T12:28:54;5.57;;;1.70;;
10399;SDS011;10031;51.180;17.168;2023-03-16T12:31:40;4.50;;;1.97;;
10399;SDS011;10031;51.180;17.168;2023-03-16T12:35:15;6.77;;;1.87;;
10399;SDS011;10031;51.180;17.168;2023-03-16T12:37:26;2.57;;;1.80;;
10399;SDS011;10031;51.180;17.168;2023-03-16T12:43:07;3.07;;;1.10;;
10399;SDS011;10031;51.180;17.168;2023-03-16T12:46:02;1.87;;;1.60;;
10399;SDS011;10031;51.180;17.168;2023-03-16T12:48:39;4.77;;;1.80;;
10399;SDS011;10031;51.180;17.168;2023-03-16T12:51:38;3.50;;;2.17;;
10399;SDS011;10031;51.180;17.168;2023-03-16T12:54:19;4.83;;;1.70;;
10399;SDS011;10031;51.180;17.168;2023-03-16T12:56:50;5.67;;;1.77;;
10399;SDS011;10031;51.180;17.168;2023-03-16T12:59:19;3.13;;;1.33;;
10399;SDS011;10031;51.180;17.168;2023-03-16T13:01:51;1.97;;;1.40;;
10399;SDS011;10031;51.180;17.168;2023-03-16T13:04:33;4.07;;;1.70;;
10399;SDS011;10031;51.180;17.168;2023-03-16T13:07:24;4.37;;;2.30;;
10399;SDS011;10031;51.180;17.168;2023-03-16T13:09:57;5.40;;;1.93;;
10399;SDS011;10031;51.180;17.168;2023-03-16T13:12:35;3.43;;;2.00;;
10399;SDS011;10031;51.180;17.168;2023-03-16T13:17:49;6.40;;;2.10;;
10399;SDS011;10031;51.180;17.168;2023-03-16T13:20:31;3.33;;;1.83;;
10399;SDS011;10031;51.180;17.168;2023-03-16T13:23:07;4.63;;;2.00;;
10399;SDS011;10031;51.180;17.168;2023-03-16T13:25:37;5.40;;;2.00;;
10399;SDS011;10031;51.180;17.168;2023-03-16T13:28:17;4.47;;;1.90;;
10399;SDS011;10031;51.180;17.168;2023-03-16T13:30:50;2.93;;;1.53;;
10399;SDS011;10031;51.180;17.168;2023-03-16T13:36:04;5.77;;;2.37;;
10399;SDS011;10031;51.180;17.168;2023-03-16T13:38:34;7.43;;;2.23;;
10399;SDS011;10031;51.180;17.168;2023-03-16T13:41:03;4.27;;;1.87;;
10399;SDS011;10031;51.180;17.168;2023-03-16T13:43:37;4.80;;;2.00;;
10399;SDS011;10031;51.180;17.168;2023-03-16T13:46:14;5.57;;;2.27;;
10399;SDS011;10031;51.180;17.168;2023-03-16T13:48:41;5.43;;;1.90;;
10399;SDS011;10031;51.180;17.168;2023-03-16T13:51:19;2.87;;;1.80;;
10399;SDS011;10031;51.180;17.168;2023-03-16T13:53:47;3.43;;;1.50;;
10399;SDS011;10031;51.180;17.168;2023-03-16T13:56:21;4.40;;;1.87;;
10399;SDS011;10031;51.180;17.168;2023-03-16T13:58:52;6.60;;;2.13;;
10399;SDS011;10031;51.180;17.168;2023-03-16T14:04:09;6.00;;;1.80;;
10399;SDS011;10031;51.180;17.168;2023-03-16T14:06:38;5.27;;;1.60;;
10399;SDS011;10031;51.180;17.168;2023-03-16T14:09:14;3.87;;;1.70;;
10399;SDS011;10031;51.180;17.168;2023-03-16T14:11:42;7.33;;;1.97;;
10399;SDS011;10031;51.180;17.168;2023-03-16T14:14:14;4.03;;;1.73;;
10399;SDS011;10031;51.180;17.168;2023-03-16T14:16:42;3.83;;;1.73;;
10399;SDS011;10031;51.180;17.168;2023-03-16T14:19:20;5.10;;;2.10;;
10399;SDS011;10031;51.180;17.168;2023-03-16T14:21:49;4.07;;;1.83;;
10399;SDS011;10031;51.180;17.168;2023-03-16T14:24:27;3.97;;;1.60;;
10399;SDS011;10031;51.180;17.168;2023-03-16T14:27:07;3.40;;;1.60;;
10399;SDS011;10031;51.180;17.168;2023-03-16T14:29:51;3.07;;;1.70;;
10399;SDS011;10031;51.180;17.168;2023-03-16T14:32:30;2.47;;;1.40;;
10399;SDS011;10031;51.180;17.168;2023-03-16T14:37:42;3.30;;;1.73;;
10399;SDS011;10031;51.180;17.168;2023-03-16T14:40:22;6.67;;;1.90;;
10399;SDS011;10031;51.180;17.168;2023-03-16T14:42:51;5.37;;;1.73;;
10399;SDS011;10031;51.180;17.168;2023-03-16T14:45:20;2.97;;;1.50;;
10399;SDS011;10031;51.180;17.168;2023-03-16T14:47:47;5.70;;;1.97;;
10399;SDS011;10031;51.180;17.168;2023-03-16T14:50:15;4.60;;;1.63;;
10399;SDS011;10031;51.180;17.168;2023-03-16T14:52:47;2.93;;;1.80;;
10399;SDS011;10031;51.180;17.168;2023-03-16T14:55:16;5.07;;;2.00;;
10399;SDS011;10031;51.180;17.168;2023-03-16T14:57:44;6.83;;;2.03;;
10399;SDS011;10031;51.180;17.168;2023-03-16T15:00:14;3.67;;;1.80;;
10399;SDS011;10031;51.180;17.168;2023-03-16T15:02:41;4.57;;;1.90;;
10399;SDS011;10031;51.180;17.168;2023-03-16T15:05:16;5.07;;;1.77;;
10399;SDS011;10031;51.180;17.168;2023-03-16T15:07:44;6.93;;;1.70;;
10399;SDS011;10031;51.180;17.168;2023-03-16T15:10:16;3.23;;;1.80;;
10399;SDS011;10031;51.180;17.168;2023-03-16T15:12:53;5.07;;;1.60;;
10399;SDS011;10031;51.180;17.168;2023-03-16T15:15:34;5.10;;;2.00;;
10399;SDS011;10031;51.180;17.168;2023-03-16T15:18:03;6.23;;;2.00;;
10399;SDS011;10031;51.180;17.168;2023-03-16T15:20:31;3.13;;;1.60;;
10399;SDS011;10031;51.180;17.168;2023-03-16T15:23:00;7.37;;;1.83;;
10399;SDS011;10031;51.180;17.168;2023-03-16T15:28:09;4.53;;;1.93;;
10399;SDS011;10031;51.180;17.168;2023-03-16T15:30:55;6.23;;;2.13;;
10399;SDS011;10031;51.180;17.168;2023-03-16T15:33:24;4.60;;;2.10;;
10399;SDS011;10031;51.180;17.168;2023-03-16T15:35:56;3.63;;;1.87;;
10399;SDS011;10031;51.180;17.168;2023-03-16T15:41:18;4.17;;;1.70;;
10399;SDS011;10031;51.180;17.168;2023-03-16T15:43:45;4.53;;;1.93;;
10399;SDS011;10031;51.180;17.168;2023-03-16T15:46:16;5.73;;;2.20;;
10399;SDS011;10031;51.180;17.168;2023-03-16T15:48:46;5.90;;;2.20;;
10399;SDS011;10031;51.180;17.168;2023-03-16T15:51:22;4.00;;;2.03;;
10399;SDS011;10031;51.180;17.168;2023-03-16T15:53:52;7.20;;;1.90;;
10399;SDS011;10031;51.180;17.168;2023-03-16T15:56:22;4.00;;;1.70;;
10399;SDS011;10031;51.180;17.168;2023-03-16T15:58:54;3.67;;;1.87;;
10399;SDS011;10031;51.180;17.168;2023-03-16T16:01:22;5.97;;;1.57;;
10399;SDS011;10031;51.180;17.168;2023-03-16T16:03:52;3.20;;;1.77;;
10399;SDS011;10031;51.180;17.168;2023-03-16T16:06:21;7.33;;;2.43;;